Time;durP1;ratioP1;P1;durP2;ratioP2;P2;SDS_P1;SDS_P2;PMS_P1;PMS_P2;Temp;Humidity;BMP_temperature;BMP_pressure;BME280_temperature;BME280_humidity;BME280_pressure;Samples;Min_cycle;Max_cycle;Signal;HPM_P1;HPM_P2
2023/06/04 00:00:08;;;;;;;3.05;1.80;;;;;;;12.23;39.26;101495.72;4934048;29;20079;-76
2023/06/04 00:02:38;;;;;;;3.28;1.77;;;;;;;12.18;39.89;101489.84;4919188;29;20071;-74
2023/06/04 00:05:10;;;;;;;4.97;2.25;;;;;;;12.14;39.81;101491.78;4933178;29;20273;-76
2023/06/04 00:07:52;;;;;;;4.93;2.35;;;;;;;12.13;39.58;101490.94;4928890;29;20051;-77
2023/06/04 00:10:24;;;;;;;2.65;1.83;;;;;;;12.11;39.98;101490.16;4948647;28;20070;-77
2023/06/04 00:12:54;;;;;;;3.97;2.05;;;;;;;12.09;40.02;101483.25;4936832;29;20447;-77
2023/06/04 00:15:24;;;;;;;2.65;1.70;;;;;;;12.08;40.26;101481.56;4946842;28;20067;-77
2023/06/04 00:17:52;;;;;;;5.57;1.40;;;;;;;12.06;40.60;101475.47;4927407;29;20079;-77
2023/06/04 00:20:20;;;;;;;3.58;1.55;;;;;;;12.02;40.63;101482.72;4949366;28;20114;-77
2023/06/04 00:22:49;;;;;;;2.45;1.50;;;;;;;12.00;40.84;101483.72;4927373;29;20056;-75
2023/06/04 00:25:29;;;;;;;4.80;1.85;;;;;;;11.98;41.12;101483.81;4946472;28;21101;-75
2023/06/04 00:28:01;;;;;;;2.28;1.45;;;;;;;11.97;41.00;101478.59;4936426;28;20078;-76
2023/06/04 00:30:30;;;;;;;2.90;1.73;;;;;;;11.96;41.46;101482.16;4921647;29;20573;-77
2023/06/04 00:33:01;;;;;;;5.40;1.30;;;;;;;11.94;41.38;101479.63;4933794;29;20065;-76
2023/06/04 00:35:30;;;;;;;2.10;1.30;;;;;;;11.91;41.74;101472.69;4950064;29;20082;-76
2023/06/04 00:38:00;;;;;;;2.50;1.55;;;;;;;11.93;41.54;101477.03;4950358;28;20051;-77
2023/06/04 00:40:29;;;;;;;3.13;1.33;;;;;;;11.89;41.65;101471.09;4938150;29;20106;-77
2023/06/04 00:42:58;;;;;;;5.00;1.38;;;;;;;11.87;42.20;101473.78;4929957;29;20154;-76
2023/06/04 00:45:31;;;;;;;3.30;1.35;;;;;;;11.85;42.06;101475.66;4978508;28;20525;-76
2023/06/04 00:48:02;;;;;;;3.00;1.30;;;;;;;11.82;42.58;101470.53;4934835;29;20130;-76
2023/06/04 00:50:33;;;;;;;2.92;1.40;;;;;;;11.77;42.85;101469.88;4948179;29;20059;-78
2023/06/04 00:53:02;;;;;;;3.75;1.50;;;;;;;11.75;43.57;101473.50;4959359;28;20427;-77
2023/06/04 00:55:34;;;;;;;2.60;1.55;;;;;;;11.71;43.21;101467.56;4957818;29;20062;-79
2023/06/04 00:58:24;;;;;;;4.05;1.30;;;;;;;11.63;43.36;101475.84;4941949;29;20139;-78
2023/06/04 01:00:56;;;;;;;4.97;1.38;;;;;;;11.57;43.38;101480.56;4938190;29;20158;-78
2023/06/04 01:03:31;;;;;;;3.67;2.10;;;;;;;11.53;43.83;101476.38;4952537;28;20051;-77
2023/06/04 01:06:36;;;;;;;3.13;1.50;;;;;;;11.49;43.53;101477.47;4945190;28;20095;-77
2023/06/04 01:09:05;;;;;;;3.28;1.88;;;;;;;11.47;43.49;101487.22;4951088;28;20039;-77
2023/06/04 01:11:34;;;;;;;4.47;1.75;;;;;;;11.43;43.92;101475.13;4916546;29;20122;-77
2023/06/04 01:14:19;;;;;;;2.65;1.35;;;;;;;11.37;44.13;101474.50;4952378;28;20163;-77
2023/06/04 01:17:01;;;;;;;5.07;1.45;;;;;;;11.33;43.90;101472.06;4930585;29;20548;-78
2023/06/04 01:20:04;;;;;;;3.42;1.80;;;;;;;11.27;44.61;101473.22;4961809;28;20661;-76
2023/06/04 01:22:56;;;;;;;4.63;1.73;;;;;;;11.25;44.69;101468.94;4928664;29;20111;-77
2023/06/04 01:25:37;;;;;;;3.83;1.70;;;;;;;11.22;44.92;101475.25;4950982;28;20527;-79
2023/06/04 01:28:12;;;;;;;1.90;1.15;;;;;;;11.20;45.27;101481.50;4951791;28;20059;-78
2023/06/04 01:30:45;;;;;;;4.00;1.92;;;;;;;11.13;45.18;101470.41;4937760;28;20118;-77
2023/06/04 01:33:20;;;;;;;4.43;1.65;;;;;;;11.10;45.48;101471.41;4913114;28;20043;-77
2023/06/04 01:35:59;;;;;;;2.65;1.50;;;;;;;11.07;45.57;101471.53;4962931;28;20086;-77
2023/06/04 01:38:29;;;;;;;3.38;1.30;;;;;;;11.03;45.76;101472.63;4919536;29;20143;-77
2023/06/04 01:41:06;;;;;;;5.17;1.73;;;;;;;10.95;46.15;101466.88;4951059;28;20051;-77
2023/06/04 01:43:35;;;;;;;2.50;1.58;;;;;;;10.89;46.04;101462.72;4963170;28;20094;-77
2023/06/04 01:47:03;;;;;;;6.60;2.40;;;;;;;10.83;46.79;101470.06;4935928;29;20055;-78
2023/06/04 01:49:40;;;;;;;2.45;1.60;;;;;;;10.77;46.73;101463.31;4947019;28;20058;-76
2023/06/04 01:52:17;;;;;;;2.47;1.60;;;;;;;10.71;47.28;101468.00;4951538;28;20043;-78
2023/06/04 01:54:55;;;;;;;4.38;1.80;;;;;;;10.65;47.98;101459.44;4946895;29;20114;-76
2023/06/04 01:57:26;;;;;;;2.75;1.65;;;;;;;10.61;48.22;101462.28;4926893;29;20595;-78
2023/06/04 01:59:53;;;;;;;5.78;1.90;;;;;;;10.56;48.17;101457.22;4967649;28;20118;-76
2023/06/04 02:02:25;;;;;;;4.65;2.00;;;;;;;10.51;48.49;101459.22;4937798;29;20043;-75
2023/06/04 02:04:52;;;;;;;4.80;1.70;;;;;;;10.47;48.33;101452.38;4945655;28;20632;-73
2023/06/04 02:07:23;;;;;;;4.88;1.73;;;;;;;10.43;48.31;101450.81;4934531;29;20043;-76
2023/06/04 02:10:07;;;;;;;3.63;2.03;;;;;;;10.40;49.16;101458.84;4953411;28;20074;-75
2023/06/04 02:12:37;;;;;;;4.72;1.75;;;;;;;10.34;49.02;101448.59;4919394;29;20078;-75
2023/06/04 02:18:59;;;;;;;4.93;2.10;;;;;;;10.31;49.25;101454.00;4958898;28;20054;-75
2023/06/04 02:21:26;;;;;;;2.63;1.83;;;;;;;10.27;49.41;101450.66;4949371;29;20056;-75
2023/06/04 02:23:56;;;;;;;3.55;1.88;;;;;;;10.25;49.79;101444.59;4956211;28;20095;-75
2023/06/04 02:26:24;;;;;;;3.53;1.63;;;;;;;10.24;49.84;101448.16;4938151;29;20142;-75
2023/06/04 02:28:54;;;;;;;5.97;1.52;;;;;;;10.22;50.47;101451.72;4955002;29;20055;-75
2023/06/04 02:31:25;;;;;;;3.53;2.15;;;;;;;10.18;49.91;101443.16;4919862;29;20138;-76
2023/06/04 02:33:58;;;;;;;8.85;2.60;;;;;;;10.17;49.64;101446.66;4948379;28;20102;-76
2023/06/04 02:36:32;;;;;;;3.13;1.55;;;;;;;10.17;50.14;101445.81;4951201;29;20059;-74
2023/06/04 02:39:06;;;;;;;3.08;1.75;;;;;;;10.14;50.64;101446.84;4930137;28;20067;-75
2023/06/04 02:41:36;;;;;;;4.57;2.22;;;;;;;10.13;50.65;101450.34;4951809;28;20070;-77
2023/06/04 02:44:04;;;;;;;5.53;1.63;;;;;;;10.11;50.70;101449.59;4950109;28;20047;-75
2023/06/04 02:46:32;;;;;;;2.83;1.77;;;;;;;10.08;50.64;101453.19;4950379;28;20087;-75
2023/06/04 02:49:07;;;;;;;3.40;1.75;;;;;;;10.08;51.14;101463.72;4934576;28;20138;-75
2023/06/04 02:51:38;;;;;;;3.40;1.50;;;;;;;10.06;50.72;101456.81;4961370;28;20485;-75
2023/06/04 02:54:05;;;;;;;2.95;1.55;;;;;;;10.05;50.54;101455.97;4948936;29;20051;-77
2023/06/04 02:56:36;;;;;;;8.77;1.95;;;;;;;10.05;50.92;101457.75;4951119;28;20043;-76
2023/06/04 02:59:10;;;;;;;2.28;1.67;;;;;;;10.03;51.74;101460.44;4934636;29;20138;-76
2023/06/04 03:01:41;;;;;;;2.78;1.73;;;;;;;10.03;51.17;101457.81;4954549;28;20066;-77
2023/06/04 03:04:22;;;;;;;4.78;1.70;;;;;;;10.03;51.68;101457.81;4944832;28;20047;-75
2023/06/04 03:06:57;;;;;;;5.18;2.10;;;;;;;10.02;51.05;101456.09;4956141;28;20047;-76
2023/06/04 03:09:26;;;;;;;3.00;1.40;;;;;;;10.01;51.55;101451.78;4945315;28;20075;-76
2023/06/04 03:12:01;;;;;;;4.60;2.13;;;;;;;10.00;51.39;101455.31;4931855;29;20047;-75
2023/06/04 03:14:33;;;;;;;11.35;2.08;;;;;;;9.99;51.33;101453.59;4965187;28;20153;-76
2023/06/04 03:17:10;;;;;;;7.00;2.25;;;;;;;10.00;52.12;101449.22;4947819;29;20477;-74
2023/06/04 03:19:43;;;;;;;4.95;2.00;;;;;;;9.99;51.80;101450.97;4961162;28;20090;-76
2023/06/04 03:22:15;;;;;;;3.33;1.83;;;;;;;9.99;52.70;101450.13;4930778;29;20041;-76
2023/06/04 03:24:48;;;;;;;6.07;2.03;;;;;;;9.97;52.32;101450.19;4948215;28;20110;-76
2023/06/04 03:27:17;;;;;;;4.40;1.90;;;;;;;9.99;52.65;101447.47;4935291;28;20139;-76
2023/06/04 03:29:48;;;;;;;4.63;2.00;;;;;;;10.00;52.40;101454.47;4907083;29;20051;-76
2023/06/04 03:32:15;;;;;;;12.18;2.85;;;;;;;10.00;53.02;101454.47;4934017;29;20071;-76
2023/06/04 03:34:50;;;;;;;3.35;1.80;;;;;;;9.99;52.85;101453.59;4938983;29;20039;-77
2023/06/04 03:37:21;;;;;;;7.57;2.05;;;;;;;9.99;53.49;101456.22;4955860;28;20050;-77
2023/06/04 03:39:57;;;;;;;3.55;1.90;;;;;;;10.02;52.68;101464.00;4951709;28;20533;-76
2023/06/04 03:42:35;;;;;;;9.65;1.52;;;;;;;10.06;53.15;101464.72;4947233;29;20544;-77
2023/06/04 03:45:02;;;;;;;4.20;2.25;;;;;;;10.09;52.95;101464.59;4930955;28;20146;-74
2023/06/04 03:47:34;;;;;;;5.88;2.15;;;;;;;10.10;53.43;101461.03;4933428;29;20422;-75
2023/06/04 03:50:10;;;;;;;5.10;2.17;;;;;;;10.11;53.52;101460.09;4946537;29;20126;-75
2023/06/04 03:52:52;;;;;;;3.53;1.70;;;;;;;10.14;53.94;101458.22;4962498;28;20047;-75
2023/06/04 03:55:22;;;;;;;3.25;1.80;;;;;;;10.19;53.87;101459.78;4943286;28;20140;-74
2023/06/04 03:58:04;;;;;;;3.97;1.90;;;;;;;10.21;53.68;101457.94;4932590;29;20171;-76
2023/06/04 04:00:34;;;;;;;8.18;1.95;;;;;;;10.25;53.32;101455.13;4936956;29;20097;-76
2023/06/04 04:03:13;;;;;;;6.95;2.25;;;;;;;10.32;53.26;101461.84;4965309;28;20088;-77
2023/06/04 04:05:51;;;;;;;6.15;2.25;;;;;;;10.38;52.80;101460.69;4960541;28;20122;-77
2023/06/04 04:08:23;;;;;;;8.02;2.05;;;;;;;10.42;52.85;101466.69;4968170;28;20123;-77
2023/06/04 04:10:51;;;;;;;4.35;1.85;;;;;;;10.47;52.95;101469.97;4931191;29;20114;-77
2023/06/04 04:13:22;;;;;;;4.80;1.83;;;;;;;10.52;52.88;101466.19;4961498;28;20052;-77
2023/06/04 04:15:52;;;;;;;4.45;2.13;;;;;;;10.57;52.92;101464.19;4955253;28;20235;-77
2023/06/04 04:18:20;;;;;;;5.50;2.13;;;;;;;10.61;53.27;101465.78;4936483;29;20481;-76
2023/06/04 04:20:56;;;;;;;5.47;1.85;;;;;;;10.64;53.49;101470.91;4958030;28;20127;-77
2023/06/04 04:23:27;;;;;;;5.05;2.22;;;;;;;10.70;52.70;101474.19;4953707;29;20048;-75
2023/06/04 04:25:56;;;;;;;4.30;1.67;;;;;;;10.76;52.92;101473.88;4954273;28;20075;-76
2023/06/04 04:28:24;;;;;;;3.33;1.95;;;;;;;10.83;52.29;101475.31;4936149;29;21037;-76
2023/06/04 04:30:56;;;;;;;7.13;2.20;;;;;;;10.89;52.46;101475.88;4938395;29;20075;-76
2023/06/04 04:33:26;;;;;;;7.53;2.00;;;;;;;10.98;52.18;101474.59;4964740;28;20051;-73
2023/06/04 04:35:54;;;;;;;4.72;2.15;;;;;;;11.06;51.72;101480.38;4952484;28;20054;-76
2023/06/04 04:38:28;;;;;;;3.25;1.90;;;;;;;11.14;51.62;101482.66;4939773;29;20486;-77
2023/06/04 04:41:00;;;;;;;5.55;2.25;;;;;;;11.21;51.68;101477.94;4940263;29;20055;-75
2023/06/04 04:43:32;;;;;;;7.22;2.08;;;;;;;11.28;51.82;101480.19;4969632;28;20146;-76
2023/06/04 04:46:05;;;;;;;4.00;2.08;;;;;;;11.37;51.41;101477.13;4935099;29;20602;-75
2023/06/04 04:48:38;;;;;;;3.65;2.20;;;;;;;11.46;50.88;101481.09;4936580;29;20150;-76
2023/06/04 04:51:06;;;;;;;2.95;1.70;;;;;;;11.55;50.85;101477.16;4939289;28;20118;-77
2023/06/04 04:53:37;;;;;;;5.38;1.95;;;;;;;11.64;50.47;101474.91;4961035;28;20638;-75
2023/06/04 04:56:05;;;;;;;8.77;1.80;;;;;;;11.74;50.52;101479.72;4961082;28;20055;-77
2023/06/04 04:58:35;;;;;;;3.05;1.90;;;;;;;11.84;49.88;101481.00;4953513;28;20050;-77
2023/06/04 05:01:07;;;;;;;5.00;2.30;;;;;;;11.93;49.92;101482.31;4936776;28;20114;-76
2023/06/04 05:03:42;;;;;;;5.05;1.80;;;;;;;12.02;49.49;101473.94;4962799;28;20079;-76
2023/06/04 05:06:11;;;;;;;3.78;1.95;;;;;;;12.12;49.48;101480.47;4950416;28;20043;-77
2023/06/04 05:08:39;;;;;;;3.10;2.08;;;;;;;12.22;49.04;101478.19;4954787;28;20035;-77
2023/06/04 05:11:09;;;;;;;5.28;1.90;;;;;;;12.32;48.65;101484.69;4953946;28;20041;-75
2023/06/04 05:13:40;;;;;;;6.47;1.95;;;;;;;12.40;48.80;101478.06;4941071;28;20479;-76
2023/06/04 05:16:14;;;;;;;4.88;1.83;;;;;;;12.52;48.66;101486.25;4950374;28;20052;-75
2023/06/04 05:18:44;;;;;;;4.38;1.85;;;;;;;12.63;48.02;101483.91;4951981;28;20055;-77
2023/06/04 05:21:17;;;;;;;8.25;2.20;;;;;;;12.72;48.07;101490.50;4922273;29;20525;-77
2023/06/04 05:23:49;;;;;;;5.45;2.25;;;;;;;12.81;47.95;101488.22;4950991;28;20051;-77
2023/06/04 05:26:18;;;;;;;4.00;2.05;;;;;;;12.91;47.74;101488.56;4934942;29;20470;-75
2023/06/04 05:28:46;;;;;;;2.28;1.48;;;;;;;13.00;47.49;101487.19;4951393;28;20047;-76
2023/06/04 05:31:18;;;;;;;2.90;1.52;;;;;;;13.10;47.38;101483.09;4940131;28;20149;-77
2023/06/04 05:33:50;;;;;;;5.03;2.10;;;;;;;13.22;47.08;101487.72;4952185;28;20097;-76
2023/06/04 05:36:22;;;;;;;3.95;1.98;;;;;;;13.33;46.44;101489.78;4948119;28;20043;-77
2023/06/04 05:39:01;;;;;;;5.32;1.67;;;;;;;13.44;46.06;101490.03;4947658;29;20130;-76
2023/06/04 05:41:30;;;;;;;3.03;1.80;;;;;;;13.57;45.78;101491.03;4937495;29;20142;-76
2023/06/04 05:44:00;;;;;;;3.85;2.00;;;;;;;13.68;45.00;101499.19;4945448;28;20051;-75
2023/06/04 05:46:34;;;;;;;5.10;2.05;;;;;;;13.80;44.93;101497.63;4950413;28;20663;-76
2023/06/04 05:49:09;;;;;;;3.25;1.60;;;;;;;13.93;44.69;101500.41;4964745;28;20081;-76
2023/06/04 05:51:36;;;;;;;5.03;2.00;;;;;;;14.06;44.18;101501.38;4953450;28;20126;-77
2023/06/04 05:54:05;;;;;;;2.88;1.80;;;;;;;14.16;43.66;101504.34;4950007;29;20043;-76
2023/06/04 05:56:35;;;;;;;3.80;1.80;;;;;;;14.28;42.84;101494.81;4953217;28;20089;-76
2023/06/04 05:59:08;;;;;;;4.53;1.50;;;;;;;14.39;42.44;101497.66;4953251;28;20552;-76
2023/06/04 06:01:43;;;;;;;2.53;1.50;;;;;;;14.51;42.14;101506.69;4950999;28;20082;-77
2023/06/04 06:04:20;;;;;;;5.43;2.28;;;;;;;14.63;41.74;101509.44;4949256;28;20142;-76
2023/06/04 06:06:48;;;;;;;3.10;1.77;;;;;;;14.74;41.61;101507.91;4965340;28;20093;-77
2023/06/04 06:09:16;;;;;;;3.97;1.83;;;;;;;14.86;41.31;101508.00;4937665;29;20450;-77
2023/06/04 06:11:50;;;;;;;4.73;1.33;;;;;;;14.97;40.59;101509.97;4930356;29;20059;-76
2023/06/04 06:14:23;;;;;;;3.58;1.20;;;;;;;15.11;40.43;101514.38;4948492;28;20553;-75
2023/06/04 06:17:09;;;;;;;4.22;1.40;;;;;;;15.26;39.65;101510.75;4949912;28;20055;-76
2023/06/04 06:19:41;;;;;;;3.42;1.50;;;;;;;15.38;39.11;101515.25;4947928;28;20119;-75
2023/06/04 06:22:09;;;;;;;3.00;1.20;;;;;;;15.49;38.58;101511.94;4930041;28;20071;-76
2023/06/04 06:24:40;;;;;;;5.53;1.40;;;;;;;15.62;38.54;101518.09;4948483;28;20471;-77
2023/06/04 06:27:11;;;;;;;5.25;1.30;;;;;;;15.74;37.51;101518.28;4949320;29;20062;-77
2023/06/04 06:29:44;;;;;;;3.15;1.60;;;;;;;15.84;37.60;101519.38;4954185;28;20129;-76
2023/06/04 06:32:18;;;;;;;3.10;1.23;;;;;;;15.97;37.22;101514.94;4954989;28;20051;-76
2023/06/04 06:34:46;;;;;;;3.88;1.30;;;;;;;16.10;36.77;101518.47;4956756;29;20462;-76
2023/06/04 06:37:14;;;;;;;6.00;1.70;;;;;;;16.22;36.31;101518.63;4944838;29;20059;-77
2023/06/04 06:39:42;;;;;;;4.38;1.30;;;;;;;16.32;36.31;101522.31;4969555;29;20049;-76
2023/06/04 06:42:09;;;;;;;5.00;1.35;;;;;;;16.40;35.54;101520.00;4956612;28;20051;-80
2023/06/04 06:44:37;;;;;;;3.38;1.58;;;;;;;16.48;34.53;101522.09;4939451;29;20051;-76
2023/06/04 06:47:10;;;;;;;4.63;1.05;;;;;;;16.51;33.92;101519.25;4958343;28;20131;-75
2023/06/04 06:49:40;;;;;;;5.03;1.38;;;;;;;16.64;34.10;101525.41;4952851;28;20179;-75
2023/06/04 06:52:07;;;;;;;4.82;1.20;;;;;;;16.70;33.43;101527.63;4938857;29;20079;-75
2023/06/04 06:54:35;;;;;;;2.28;0.98;;;;;;;16.81;33.49;101525.09;4931463;29;20047;-77
2023/06/04 06:57:08;;;;;;;3.22;1.13;;;;;;;16.98;33.41;101528.38;4952459;28;20051;-76
2023/06/04 06:59:36;;;;;;;3.40;1.05;;;;;;;17.11;32.59;101524.72;4945348;28;20130;-79
2023/06/04 07:02:06;;;;;;;5.45;0.90;;;;;;;17.21;31.83;101523.09;4963128;28;20051;-74
2023/06/04 07:04:34;;;;;;;2.08;1.15;;;;;;;17.29;31.55;101525.22;4948626;29;20046;-76
2023/06/04 07:07:05;;;;;;;3.72;0.82;;;;;;;17.32;31.65;101527.63;4933838;29;20082;-78
2023/06/04 07:09:32;;;;;;;5.40;1.38;;;;;;;17.39;31.30;101523.56;4951037;28;20458;-77
2023/06/04 07:12:04;;;;;;;2.85;1.27;;;;;;;17.49;31.70;101521.06;4952086;28;20431;-76
2023/06/04 07:14:32;;;;;;;1.65;0.90;;;;;;;17.61;31.55;101525.50;4933775;29;20138;-76
2023/06/04 07:17:03;;;;;;;3.15;0.90;;;;;;;17.77;31.37;101527.03;4967144;28;20055;-76
2023/06/04 07:19:33;;;;;;;3.25;1.40;;;;;;;17.92;31.53;101531.22;4935849;29;20043;-76
2023/06/04 07:22:01;;;;;;;8.35;1.13;;;;;;;18.01;31.25;101524.34;4939769;29;20079;-76
2023/06/04 07:24:33;;;;;;;6.18;1.42;;;;;;;18.11;31.01;101528.88;4936579;29;20147;-75
2023/06/04 07:27:22;;;;;;;3.70;1.00;;;;;;;18.22;30.89;101525.38;4946996;28;20062;-75
2023/06/04 07:29:49;;;;;;;8.00;1.00;;;;;;;18.33;30.24;101527.22;4943811;29;20134;-76
2023/06/04 07:32:17;;;;;;;2.65;0.70;;;;;;;18.43;29.96;101528.19;4932962;28;20549;-75
2023/06/04 07:34:45;;;;;;;4.72;0.93;;;;;;;18.52;29.58;101522.16;4951351;28;20051;-76
2023/06/04 07:37:34;;;;;;;2.47;0.75;;;;;;;18.59;29.66;101526.03;4958607;28;20535;-78
2023/06/04 07:40:07;;;;;;;4.55;1.13;;;;;;;18.72;29.15;101526.78;4947801;28;20111;-78
2023/06/04 07:42:34;;;;;;;2.85;1.00;;;;;;;18.86;29.35;101532.84;4948971;28;20164;-78
2023/06/04 07:45:08;;;;;;;3.67;1.17;;;;;;;19.00;29.30;101532.59;4947758;29;20064;-79
2023/06/04 07:47:38;;;;;;;8.40;1.30;;;;;;;19.13;29.41;101538.66;4950268;29;20103;-78
2023/06/04 07:50:09;;;;;;;6.65;1.80;;;;;;;19.22;29.15;101537.91;4975081;28;20043;-76
2023/06/04 07:52:37;;;;;;;6.57;1.40;;;;;;;19.30;28.90;101531.94;4943211;29;20059;-78
2023/06/04 07:55:05;;;;;;;3.20;1.63;;;;;;;19.29;28.98;101529.41;4967994;28;20551;-78
2023/06/04 07:57:33;;;;;;;16.45;2.50;;;;;;;19.36;29.21;101530.59;4939262;28;20126;-77
2023/06/04 08:00:03;;;;;;;9.98;1.77;;;;;;;19.43;30.14;101532.66;4954850;28;20055;-78
2023/06/04 08:02:34;;;;;;;5.07;1.42;;;;;;;19.57;29.45;101533.34;4953321;28;20047;-80
2023/06/04 08:05:02;;;;;;;2.85;1.25;;;;;;;19.67;28.95;101535.13;4957874;28;20062;-78
2023/06/04 08:07:32;;;;;;;3.45;1.10;;;;;;;19.69;27.58;101533.22;4969675;28;20220;-80
2023/06/04 08:10:00;;;;;;;1.45;1.00;;;;;;;19.70;28.04;101524.22;4938633;29;20123;-78
2023/06/04 08:12:28;;;;;;;1.80;0.80;;;;;;;19.82;27.88;101530.38;4948896;29;20063;-78
2023/06/04 08:14:58;;;;;;;5.10;1.00;;;;;;;19.89;27.79;101536.88;4950212;28;20455;-79
2023/06/04 08:17:25;;;;;;;2.17;0.82;;;;;;;20.01;28.35;101529.66;4953592;28;20063;-76
2023/06/04 08:19:53;;;;;;;2.75;1.10;;;;;;;20.15;27.77;101525.81;4965803;28;20440;-78
2023/06/04 08:22:20;;;;;;;4.18;0.90;;;;;;;20.22;27.93;101529.69;4962384;28;20043;-78
2023/06/04 08:24:47;;;;;;;5.43;0.88;;;;;;;20.33;27.64;101528.75;4953348;28;20097;-74
2023/06/04 08:27:17;;;;;;;2.00;0.90;;;;;;;20.41;27.51;101528.94;4952725;29;20131;-73
2023/06/04 08:29:45;;;;;;;2.20;0.85;;;;;;;20.51;27.12;101537.88;4950270;28;20478;-74
2023/06/04 08:32:15;;;;;;;4.32;1.55;;;;;;;20.55;27.11;101531.31;4955359;28;20132;-75
2023/06/04 08:34:44;;;;;;;3.08;0.82;;;;;;;20.63;26.79;101525.28;4945355;28;20060;-73
2023/06/04 08:37:12;;;;;;;3.70;0.80;;;;;;;20.69;26.49;101530.94;4953751;28;20078;-74
2023/06/04 08:39:39;;;;;;;3.20;1.33;;;;;;;20.71;26.20;101528.13;4940835;29;20047;-74
2023/06/04 08:42:12;;;;;;;4.18;0.82;;;;;;;20.72;25.50;101535.19;4937984;29;20810;-74
2023/06/04 08:44:39;;;;;;;1.77;0.80;;;;;;;20.52;25.63;101528.88;4953793;28;20047;-74
2023/06/04 08:47:08;;;;;;;2.38;0.90;;;;;;;20.38;26.16;101537.22;4953297;28;20043;-75
2023/06/04 08:49:40;;;;;;;3.70;0.93;;;;;;;20.46;26.13;101527.56;4949579;29;20035;-73
2023/06/04 08:52:12;;;;;;;4.13;1.10;;;;;;;20.43;25.94;101527.81;4951299;28;20071;-73
2023/06/04 08:54:42;;;;;;;3.00;1.08;;;;;;;20.51;26.37;101523.66;4935598;29;20147;-74
2023/06/04 08:57:10;;;;;;;3.78;1.08;;;;;;;20.63;25.76;101542.19;4947973;28;20074;-72
2023/06/04 08:59:42;;;;;;;3.63;0.82;;;;;;;20.57;25.61;101531.16;4934581;29;20090;-72
2023/06/04 09:02:14;;;;;;;1.27;1.05;;;;;;;20.63;25.56;101534.16;4946671;28;20091;-73
2023/06/04 09:04:45;;;;;;;1.77;1.00;;;;;;;20.81;25.63;101530.88;4951673;28;20055;-73
2023/06/04 09:07:16;;;;;;;2.15;1.00;;;;;;;20.88;24.60;101540.88;4946086;28;20162;-73
2023/06/04 09:09:46;;;;;;;3.38;1.40;;;;;;;20.79;25.03;101532.81;4947291;28;20051;-74
2023/06/04 09:12:24;;;;;;;2.50;0.80;;;;;;;20.87;25.04;101536.50;4965279;28;20513;-75
2023/06/04 09:19:11;;;;;;;2.88;0.93;;;;;;;21.35;25.18;101543.03;4949605;28;20046;-75
2023/06/04 09:21:55;;;;;;;0.70;0.60;;;;;;;21.53;25.31;101529.81;4930890;28;20055;-73
2023/06/04 09:24:24;;;;;;;2.95;0.95;;;;;;;21.70;26.17;101540.69;4951339;28;20518;-73
2023/06/04 09:26:52;;;;;;;1.60;0.90;;;;;;;21.90;26.00;101538.00;4949739;28;20062;-72
2023/06/04 09:29:21;;;;;;;1.83;1.10;;;;;;;22.09;25.80;101535.28;4929845;29;20091;-74
2023/06/04 09:31:58;;;;;;;1.92;0.90;;;;;;;22.17;24.77;101532.78;4949555;28;20122;-75
2023/06/04 09:34:29;;;;;;;3.33;0.95;;;;;;;22.26;24.86;101539.09;4935137;29;20047;-74
2023/06/04 09:36:58;;;;;;;1.52;1.00;;;;;;;22.36;24.65;101534.56;4934682;29;20497;-74
2023/06/04 09:39:26;;;;;;;4.60;0.93;;;;;;;22.28;23.86;101541.63;4934233;29;20079;-73
2023/06/04 09:42:00;;;;;;;4.72;1.05;;;;;;;22.37;23.83;101535.41;4970084;28;20047;-73
2023/06/04 09:44:30;;;;;;;2.15;0.75;;;;;;;22.49;24.41;101536.94;4947751;28;20137;-73
2023/06/04 09:46:58;;;;;;;2.38;1.05;;;;;;;22.55;23.34;101538.19;4957947;28;20134;-73
2023/06/04 09:49:26;;;;;;;2.00;0.98;;;;;;;22.46;23.54;101539.91;4948836;28;20127;-73
2023/06/04 09:52:02;;;;;;;2.78;1.00;;;;;;;22.45;23.67;101536.38;4927647;29;20055;-73
2023/06/04 09:54:39;;;;;;;5.22;1.13;;;;;;;22.63;24.07;101533.78;4936598;29;20046;-73
2023/06/04 09:57:18;;;;;;;1.15;0.88;;;;;;;22.77;23.78;101528.91;4945927;28;20062;-73
2023/06/04 09:59:46;;;;;;;4.47;1.05;;;;;;;22.71;23.26;101541.94;4927162;29;20047;-74
2023/06/04 10:02:21;;;;;;;2.65;1.45;;;;;;;22.80;23.62;101534.00;4947171;28;20110;-74
2023/06/04 10:04:54;;;;;;;3.78;0.90;;;;;;;22.97;23.29;101533.25;4932465;29;20542;-75
2023/06/04 10:07:23;;;;;;;1.98;1.10;;;;;;;23.04;23.55;101534.34;4926711;29;20186;-73
2023/06/04 10:09:54;;;;;;;2.20;0.98;;;;;;;23.07;23.63;101527.81;4930016;29;20083;-74
2023/06/04 10:12:29;;;;;;;5.70;1.67;;;;;;;23.18;23.85;101531.13;4947019;28;20051;-74
2023/06/04 10:15:12;;;;;;;3.13;1.40;;;;;;;23.10;22.58;101533.75;4975698;28;20639;-73
2023/06/04 10:17:47;;;;;;;3.55;1.13;;;;;;;23.10;22.20;101524.81;4931911;29;20077;-72
2023/06/04 10:20:23;;;;;;;2.90;0.95;;;;;;;22.94;21.76;101530.84;4934808;29;20050;-74
2023/06/04 10:22:51;;;;;;;1.67;0.85;;;;;;;22.82;22.04;101523.94;4951061;28;20117;-74
2023/06/04 10:25:21;;;;;;;1.38;0.75;;;;;;;22.87;22.83;101524.34;4933307;29;20055;-73
2023/06/04 10:27:51;;;;;;;4.95;1.73;;;;;;;22.91;23.26;101520.41;4930222;29;20086;-73
2023/06/04 10:30:20;;;;;;;6.13;3.15;;;;;;;22.85;22.43;101526.34;4951649;28;20055;-75
2023/06/04 10:32:51;;;;;;;4.75;2.92;;;;;;;22.66;22.50;101530.81;4961487;28;20047;-74
2023/06/04 10:35:30;;;;;;;3.33;1.80;;;;;;;22.72;22.62;101521.31;4941495;28;20166;-74
2023/06/04 10:38:10;;;;;;;5.57;1.20;;;;;;;22.99;22.42;101526.72;4946175;28;20071;-73
2023/06/04 10:40:38;;;;;;;5.70;1.95;;;;;;;23.04;22.29;101530.81;4918590;29;20074;-75
2023/06/04 10:43:17;;;;;;;5.65;1.67;;;;;;;23.14;21.73;101534.28;4919016;28;20098;-74
2023/06/04 10:45:45;;;;;;;3.30;0.90;;;;;;;23.02;21.91;101522.91;4965025;28;20051;-74
2023/06/04 10:48:13;;;;;;;2.28;0.75;;;;;;;23.00;21.50;101530.25;4934067;28;20081;-74
2023/06/04 10:50:53;;;;;;;4.82;1.67;;;;;;;22.92;22.09;101528.34;4948065;28;20086;-74
2023/06/04 10:53:23;;;;;;;5.32;2.13;;;;;;;22.99;21.93;101520.50;4959514;28;20123;-74
2023/06/04 10:55:51;;;;;;;6.22;3.17;;;;;;;23.09;22.64;101518.59;4946232;28;20070;-74
2023/06/04 10:58:20;;;;;;;3.25;1.10;;;;;;;23.32;21.34;101521.72;4952883;28;20117;-73
2023/06/04 11:00:49;;;;;;;4.93;1.10;;;;;;;23.22;21.15;101519.09;4943069;28;20145;-73
2023/06/04 11:03:19;;;;;;;3.83;1.13;;;;;;;23.19;21.25;101524.78;4955306;28;20059;-75
2023/06/04 11:05:50;;;;;;;3.30;1.23;;;;;;;23.41;21.75;101530.72;4956053;28;20389;-73
2023/06/04 11:08:32;;;;;;;2.60;1.30;;;;;;;23.72;21.80;101518.63;4935900;28;20043;-76
2023/06/04 11:11:10;;;;;;;3.92;1.30;;;;;;;23.99;21.60;101520.34;4934853;28;20039;-73
2023/06/04 11:13:41;;;;;;;4.97;1.02;;;;;;;24.08;21.02;101512.34;4962710;28;20479;-75
2023/06/04 11:16:17;;;;;;;2.60;1.00;;;;;;;24.08;20.90;101513.19;4929046;29;20066;-74
2023/06/04 11:18:56;;;;;;;4.50;1.20;;;;;;;24.19;21.08;101510.25;4948675;28;20035;-74
2023/06/04 11:21:26;;;;;;;2.40;1.08;;;;;;;24.32;21.21;101504.47;4933496;29;20039;-74
2023/06/04 11:24:00;;;;;;;2.78;1.27;;;;;;;24.61;21.67;101500.59;4934156;29;20130;-73
2023/06/04 11:26:37;;;;;;;2.22;1.02;;;;;;;24.95;21.74;101503.28;4933588;29;20051;-74
2023/06/04 11:29:11;;;;;;;1.92;1.00;;;;;;;25.22;21.61;101502.22;4933734;28;20039;-75
2023/06/04 11:31:45;;;;;;;2.17;1.10;;;;;;;25.44;21.39;101503.44;4952723;28;20123;-74
2023/06/04 11:34:27;;;;;;;1.88;0.90;;;;;;;25.63;20.92;101500.44;4947248;28;20059;-74
2023/06/04 11:36:55;;;;;;;4.15;0.95;;;;;;;25.74;20.53;101499.25;4950318;28;20546;-73
2023/06/04 11:39:24;;;;;;;1.95;0.90;;;;;;;25.89;20.75;101508.41;4964939;28;20152;-73
2023/06/04 11:41:53;;;;;;;2.45;0.95;;;;;;;25.96;19.78;101495.06;4933647;29;20089;-73
2023/06/04 11:44:23;;;;;;;1.60;0.93;;;;;;;25.97;20.27;101489.47;4949108;28;20075;-74
2023/06/04 11:46:52;;;;;;;3.58;1.05;;;;;;;26.08;20.06;101492.88;4951579;28;20134;-72
2023/06/04 11:49:23;;;;;;;1.73;0.82;;;;;;;26.23;19.85;101491.97;4911045;29;20047;-73
2023/06/04 11:51:54;;;;;;;1.25;0.93;;;;;;;26.38;19.28;101494.81;4933336;29;20487;-75
2023/06/04 11:54:23;;;;;;;3.17;1.20;;;;;;;26.40;19.74;101500.06;4917760;29;20048;-73